sensor_id;sensor_type;location;lat;lon;timestamp;temperature;humidity
15676;DHT22;7938;47.666;9.434;2022-07-22T04:01:12;17.10;99.90
15676;DHT22;7938;47.666;9.434;2022-07-22T04:03:38;17.10;99.90
15676;DHT22;7938;47.666;9.434;2022-07-22T04:06:06;17.10;99.90
15676;DHT22;7938;47.666;9.434;2022-07-22T04:08:33;17.20;99.90
15676;DHT22;7938;47.666;9.434;2022-07-22T04:11:00;17.10;99.90
15676;DHT22;7938;47.666;9.434;2022-07-22T04:13:27;17.10;99.90
15676;DHT22;7938;47.666;9.434;2022-07-22T04:15:53;17.10;99.90
15676;DHT22;7938;47.666;9.434;2022-07-22T04:18:22;17.10;99.90
15676;DHT22;7938;47.666;9.434;2022-07-22T04:20:49;17.10;99.90
15676;DHT22;7938;47.666;9.434;2022-07-22T04:23:16;17.20;99.90
15676;DHT22;7938;47.666;9.434;2022-07-22T04:25:43;16.10;99.90
15676;DHT22;7938;47.666;9.434;2022-07-22T04:28:11;17.30;99.90
15676;DHT22;7938;47.666;9.434;2022-07-22T04:30:38;17.40;99.90
15676;DHT22;7938;47.666;9.434;2022-07-22T04:33:04;17.40;99.90
15676;DHT22;7938;47.666;9.434;2022-07-22T04:35:33;17.40;99.90
15676;DHT22;7938;47.666;9.434;2022-07-22T04:38:00;17.50;99.90
15676;DHT22;7938;47.666;9.434;2022-07-22T04:40:27;17.40;99.90
15676;DHT22;7938;47.666;9.434;2022-07-22T04:42:54;17.60;99.90
15676;DHT22;7938;47.666;9.434;2022-07-22T04:45:21;17.60;99.90
15676;DHT22;7938;47.666;9.434;2022-07-22T04:47:48;17.70;99.90
15676;DHT22;7938;47.666;9.434;2022-07-22T04:50:15;17.50;99.90
15676;DHT22;7938;47.666;9.434;2022-07-22T04:52:43;17.80;99.90
15676;DHT22;7938;47.666;9.434;2022-07-22T04:55:10;17.80;99.90
15676;DHT22;7938;47.666;9.434;2022-07-22T04:57:37;17.90;99.90
15676;DHT22;7938;47.666;9.434;2022-07-22T05:00:05;17.90;99.90
15676;DHT22;7938;47.666;9.434;2022-07-22T05:02:32;17.90;99.90
15676;DHT22;7938;47.666;9.434;2022-07-22T05:04:59;17.90;99.90
15676;DHT22;7938;47.666;9.434;2022-07-22T05:07:26;18.00;99.90
15676;DHT22;7938;47.666;9.434;2022-07-22T05:09:54;18.00;99.90
15676;DHT22;7938;47.666;9.434;2022-07-22T05:12:21;18.10;99.90
15676;DHT22;7938;47.666;9.434;2022-07-22T05:14:48;18.10;99.90
15676;DHT22;7938;47.666;9.434;2022-07-22T05:17:15;18.20;99.90
15676;DHT22;7938;47.666;9.434;2022-07-22T05:19:42;18.20;99.90
15676;DHT22;7938;47.666;9.434;2022-07-22T05:22:09;18.40;99.90
15676;DHT22;7938;47.666;9.434;2022-07-22T05:24:36;18.40;99.90
15676;DHT22;7938;47.666;9.434;2022-07-22T05:27:04;18.50;99.90
15676;DHT22;7938;47.666;9.434;2022-07-22T05:29:31;18.60;99.90
15676;DHT22;7938;47.666;9.434;2022-07-22T05:31:58;18.70;99.90
15676;DHT22;7938;47.666;9.434;2022-07-22T05:34:25;18.80;99.90
15676;DHT22;7938;47.666;9.434;2022-07-22T05:36:52;18.90;99.90
15676;DHT22;7938;47.666;9.434;2022-07-22T05:39:19;18.90;99.90
15676;DHT22;7938;47.666;9.434;2022-07-22T05:41:46;19.10;99.90
15676;DHT22;7938;47.666;9.434;2022-07-22T05:44:15;19.10;99.90
15676;DHT22;7938;47.666;9.434;2022-07-22T05:46:41;19.20;99.90
15676;DHT22;7938;47.666;9.434;2022-07-22T05:49:08;19.30;99.90
15676;DHT22;7938;47.666;9.434;2022-07-22T05:51:36;19.40;99.90
15676;DHT22;7938;47.666;9.434;2022-07-22T05:54:03;19.50;99.90
15676;DHT22;7938;47.666;9.434;2022-07-22T05:56:30;19.60;99.90
15676;DHT22;7938;47.666;9.434;2022-07-22T05:58:57;19.60;99.90
15676;DHT22;7938;47.666;9.434;2022-07-22T06:01:26;19.80;99.90
15676;DHT22;7938;47.666;9.434;2022-07-22T06:03:53;19.80;99.90
15676;DHT22;7938;47.666;9.434;2022-07-22T06:06:19;19.90;99.90
15676;DHT22;7938;47.666;9.434;2022-07-22T06:08:46;20.00;99.90
15676;DHT22;7938;47.666;9.434;2022-07-22T06:11:13;20.10;99.90
15676;DHT22;7938;47.666;9.434;2022-07-22T06:13:40;20.20;99.90
15676;DHT22;7938;47.666;9.434;2022-07-22T06:16:07;20.30;99.90
15676;DHT22;7938;47.666;9.434;2022-07-22T06:18:35;20.40;99.90
15676;DHT22;7938;47.666;9.434;2022-07-22T06:21:04;20.50;99.90
15676;DHT22;7938;47.666;9.434;2022-07-22T06:23:31;20.60;99.90
15676;DHT22;7938;47.666;9.434;2022-07-22T06:25:58;20.70;99.90
15676;DHT22;7938;47.666;9.434;2022-07-22T06:28:24;20.70;99.90
15676;DHT22;7938;47.666;9.434;2022-07-22T06:30:51;20.90;99.90
15676;DHT22;7938;47.666;9.434;2022-07-22T06:33:18;20.90;99.90
15676;DHT22;7938;47.666;9.434;2022-07-22T06:35:46;20.90;99.90
15676;DHT22;7938;47.666;9.434;2022-07-22T06:38:13;21.10;99.90
15676;DHT22;7938;47.666;9.434;2022-07-22T06:40:40;21.20;99.90
15676;DHT22;7938;47.666;9.434;2022-07-22T06:43:07;21.20;99.90
15676;DHT22;7938;47.666;9.434;2022-07-22T06:45:34;21.30;99.90
15676;DHT22;7938;47.666;9.434;2022-07-22T06:48:01;21.30;99.90
15676;DHT22;7938;47.666;9.434;2022-07-22T06:50:28;21.40;99.90
15676;DHT22;7938;47.666;9.434;2022-07-22T06:52:56;21.40;99.90
15676;DHT22;7938;47.666;9.434;2022-07-22T06:55:23;21.50;99.90
15676;DHT22;7938;47.666;9.434;2022-07-22T06:57:50;21.50;99.90
15676;DHT22;7938;47.666;9.434;2022-07-22T07:00:17;22.00;99.90
15676;DHT22;7938;47.666;9.434;2022-07-22T07:02:44;21.70;99.90
15676;DHT22;7938;47.666;9.434;2022-07-22T07:05:11;21.90;99.90
15676;DHT22;7938;47.666;9.434;2022-07-22T07:07:38;21.90;99.90
15676;DHT22;7938;47.666;9.434;2022-07-22T07:10:07;22.10;99.90
15676;DHT22;7938;47.666;9.434;2022-07-22T07:12:35;22.20;99.90
15676;DHT22;7938;47.666;9.434;2022-07-22T07:15:02;22.30;99.90
15676;DHT22;7938;47.666;9.434;2022-07-22T07:17:29;22.30;99.90
15676;DHT22;7938;47.666;9.434;2022-07-22T07:19:56;22.40;99.90
15676;DHT22;7938;47.666;9.434;2022-07-22T07:22:23;22.50;99.90
15676;DHT22;7938;47.666;9.434;2022-07-22T07:24:50;22.50;99.90
15676;DHT22;7938;47.666;9.434;2022-07-22T07:27:18;22.70;99.90
15676;DHT22;7938;47.666;9.434;2022-07-22T07:29:45;22.70;99.90
15676;DHT22;7938;47.666;9.434;2022-07-22T07:32:12;22.80;99.90
15676;DHT22;7938;47.666;9.434;2022-07-22T07:34:39;22.80;99.90
15676;DHT22;7938;47.666;9.434;2022-07-22T07:37:06;22.90;99.90
15676;DHT22;7938;47.666;9.434;2022-07-22T07:39:33;23.00;99.90
15676;DHT22;7938;47.666;9.434;2022-07-22T07:42:00;23.10;99.90
15676;DHT22;7938;47.666;9.434;2022-07-22T07:44:28;23.10;99.90
15676;DHT22;7938;47.666;9.434;2022-07-22T07:46:55;23.20;99.90
15676;DHT22;7938;47.666;9.434;2022-07-22T07:49:22;23.30;99.90
15676;DHT22;7938;47.666;9.434;2022-07-22T07:51:49;23.50;99.90
15676;DHT22;7938;47.666;9.434;2022-07-22T07:54:17;23.50;99.90
15676;DHT22;7938;47.666;9.434;2022-07-22T07:56:44;23.60;99.90
15676;DHT22;7938;47.666;9.434;2022-07-22T07:59:11;23.60;99.90
15676;DHT22;7938;47.666;9.434;2022-07-22T08:01:39;23.60;99.90
15676;DHT22;7938;47.666;9.434;2022-07-22T08:04:06;23.80;99.90
15676;DHT22;7938;47.666;9.434;2022-07-22T08:06:33;23.80;99.90
15676;DHT22;7938;47.666;9.434;2022-07-22T08:09:00;23.90;99.90
15676;DHT22;7938;47.666;9.434;2022-07-22T08:11:26;24.00;99.90
15676;DHT22;7938;47.666;9.434;2022-07-22T08:13:53;24.10;99.90
15676;DHT22;7938;47.666;9.434;2022-07-22T08:16:20;24.10;99.90
15676;DHT22;7938;47.666;9.434;2022-07-22T08:18:49;24.20;99.90
15676;DHT22;7938;47.666;9.434;2022-07-22T08:21:16;24.40;99.90
15676;DHT22;7938;47.666;9.434;2022-07-22T08:23:43;24.40;99.90
15676;DHT22;7938;47.666;9.434;2022-07-22T08:26:09;24.50;99.90
15676;DHT22;7938;47.666;9.434;2022-07-22T08:28:36;24.50;99.90
15676;DHT22;7938;47.666;9.434;2022-07-22T08:31:03;24.50;99.90
15676;DHT22;7938;47.666;9.434;2022-07-22T08:33:30;24.50;99.90
15676;DHT22;7938;47.666;9.434;2022-07-22T08:35:59;24.50;99.90
15676;DHT22;7938;47.666;9.434;2022-07-22T08:38:26;24.50;99.90
15676;DHT22;7938;47.666;9.434;2022-07-22T08:40:54;24.70;99.90
15676;DHT22;7938;47.666;9.434;2022-07-22T08:43:21;24.70;99.90
15676;DHT22;7938;47.666;9.434;2022-07-22T08:45:48;24.80;99.90
15676;DHT22;7938;47.666;9.434;2022-07-22T08:48:15;24.70;99.90
15676;DHT22;7938;47.666;9.434;2022-07-22T08:50:42;24.70;99.90
15676;DHT22;7938;47.666;9.434;2022-07-22T08:53:11;24.70;99.90
15676;DHT22;7938;47.666;9.434;2022-07-22T08:55:41;24.70;99.90
15676;DHT22;7938;47.666;9.434;2022-07-22T08:58:09;24.70;99.90
15676;DHT22;7938;47.666;9.434;2022-07-22T09:00:38;24.50;99.90
15676;DHT22;7938;47.666;9.434;2022-07-22T09:03:17;24.50;99.90
15676;DHT22;7938;47.666;9.434;2022-07-22T09:05:44;24.40;99.90
15676;DHT22;7938;47.666;9.434;2022-07-22T09:08:12;24.50;99.90
15676;DHT22;7938;47.666;9.434;2022-07-22T09:10:39;24.70;99.90
15676;DHT22;7938;47.666;9.434;2022-07-22T09:13:07;24.70;99.90
15676;DHT22;7938;47.666;9.434;2022-07-22T09:15:37;24.70;99.90
15676;DHT22;7938;47.666;9.434;2022-07-22T09:18:06;24.80;99.90
15676;DHT22;7938;47.666;9.434;2022-07-22T09:20:34;24.80;99.90
15676;DHT22;7938;47.666;9.434;2022-07-22T09:23:01;24.90;99.90
15676;DHT22;7938;47.666;9.434;2022-07-22T09:25:31;24.80;99.90
15676;DHT22;7938;47.666;9.434;2022-07-22T09:28:11;24.80;99.90
15676;DHT22;7938;47.666;9.434;2022-07-22T09:30:40;24.80;99.90
15676;DHT22;7938;47.666;9.434;2022-07-22T09:33:07;24.80;99.90
15676;DHT22;7938;47.666;9.434;2022-07-22T09:35:35;24.90;99.90
15676;DHT22;7938;47.666;9.434;2022-07-22T09:38:04;24.90;99.90
15676;DHT22;7938;47.666;9.434;2022-07-22T09:40:34;25.10;99.90
15676;DHT22;7938;47.666;9.434;2022-07-22T09:43:04;25.00;99.90
15676;DHT22;7938;47.666;9.434;2022-07-22T09:45:32;25.10;99.90
15676;DHT22;7938;47.666;9.434;2022-07-22T09:48:01;25.10;99.90
15676;DHT22;7938;47.666;9.434;2022-07-22T09:50:29;25.30;99.90
15676;DHT22;7938;47.666;9.434;2022-07-22T09:52:58;25.20;99.90
15676;DHT22;7938;47.666;9.434;2022-07-22T09:55:27;25.30;99.90
15676;DHT22;7938;47.666;9.434;2022-07-22T09:57:56;25.40;99.90
15676;DHT22;7938;47.666;9.434;2022-07-22T10:00:25;25.60;99.90
15676;DHT22;7938;47.666;9.434;2022-07-22T10:02:54;25.50;99.90
15676;DHT22;7938;47.666;9.434;2022-07-22T10:05:24;25.70;99.90
15676;DHT22;7938;47.666;9.434;2022-07-22T10:07:51;25.80;99.90
15676;DHT22;7938;47.666;9.434;2022-07-22T10:10:20;25.80;99.90
15676;DHT22;7938;47.666;9.434;2022-07-22T10:12:48;25.90;99.90
15676;DHT22;7938;47.666;9.434;2022-07-22T10:15:17;26.00;99.90
15676;DHT22;7938;47.666;9.434;2022-07-22T10:17:46;26.10;99.90
15676;DHT22;7938;47.666;9.434;2022-07-22T10:20:17;26.20;99.90
15676;DHT22;7938;47.666;9.434;2022-07-22T10:22:50;26.20;99.90
15676;DHT22;7938;47.666;9.434;2022-07-22T10:25:18;26.30;99.90
15676;DHT22;7938;47.666;9.434;2022-07-22T10:27:46;26.40;99.90
15676;DHT22;7938;47.666;9.434;2022-07-22T10:30:15;26.40;99.90
15676;DHT22;7938;47.666;9.434;2022-07-22T10:32:44;26.40;99.90
15676;DHT22;7938;47.666;9.434;2022-07-22T10:35:24;26.30;99.90
15676;DHT22;7938;47.666;9.434;2022-07-22T10:37:55;26.30;99.90
15676;DHT22;7938;47.666;9.434;2022-07-22T10:40:23;26.60;99.90
15676;DHT22;7938;47.666;9.434;2022-07-22T10:43:10;26.50;99.90
15676;DHT22;7938;47.666;9.434;2022-07-22T10:45:40;26.60;99.90
15676;DHT22;7938;47.666;9.434;2022-07-22T10:48:12;26.60;99.90
15676;DHT22;7938;47.666;9.434;2022-07-22T10:50:50;26.70;99.90
15676;DHT22;7938;47.666;9.434;2022-07-22T10:53:20;26.70;99.90
15676;DHT22;7938;47.666;9.434;2022-07-22T10:56:12;26.80;99.90
15676;DHT22;7938;47.666;9.434;2022-07-22T10:58:47;26.90;99.90
15676;DHT22;7938;47.666;9.434;2022-07-22T11:01:18;26.90;99.90
15676;DHT22;7938;47.666;9.434;2022-07-22T11:03:48;26.70;99.90
15676;DHT22;7938;47.666;9.434;2022-07-22T11:06:18;26.70;99.90
15676;DHT22;7938;47.666;9.434;2022-07-22T11:08:47;26.70;99.90
15676;DHT22;7938;47.666;9.434;2022-07-22T11:11:15;26.80;99.90
15676;DHT22;7938;47.666;9.434;2022-07-22T11:13:43;26.90;99.90
15676;DHT22;7938;47.666;9.434;2022-07-22T11:16:19;26.80;99.90
15676;DHT22;7938;47.666;9.434;2022-07-22T11:18:50;26.90;99.90
15676;DHT22;7938;47.666;9.434;2022-07-22T11:21:19;27.00;99.90
15676;DHT22;7938;47.666;9.434;2022-07-22T11:23:48;27.10;99.90
15676;DHT22;7938;47.666;9.434;2022-07-22T11:26:17;27.20;99.90
15676;DHT22;7938;47.666;9.434;2022-07-22T11:28:45;27.20;99.90
15676;DHT22;7938;47.666;9.434;2022-07-22T11:31:14;27.30;99.90
15676;DHT22;7938;47.666;9.434;2022-07-22T11:33:42;27.30;99.90
15676;DHT22;7938;47.666;9.434;2022-07-22T11:36:11;27.40;99.90
15676;DHT22;7938;47.666;9.434;2022-07-22T11:38:46;27.40;99.90
15676;DHT22;7938;47.666;9.434;2022-07-22T11:41:15;27.40;99.90
15676;DHT22;7938;47.666;9.434;2022-07-22T11:43:44;27.40;99.90
15676;DHT22;7938;47.666;9.434;2022-07-22T11:46:13;27.60;99.90
15676;DHT22;7938;47.666;9.434;2022-07-22T11:48:40;27.70;99.90
15676;DHT22;7938;47.666;9.434;2022-07-22T11:51:11;28.00;99.90
15676;DHT22;7938;47.666;9.434;2022-07-22T11:53:39;28.00;99.90
15676;DHT22;7938;47.666;9.434;2022-07-22T11:56:08;28.10;99.90
15676;DHT22;7938;47.666;9.434;2022-07-22T11:58:43;28.20;99.90
15676;DHT22;7938;47.666;9.434;2022-07-22T12:01:12;28.40;99.90
15676;DHT22;7938;47.666;9.434;2022-07-22T12:03:44;28.40;99.90
15676;DHT22;7938;47.666;9.434;2022-07-22T12:06:14;28.50;99.90
15676;DHT22;7938;47.666;9.434;2022-07-22T12:08:43;28.70;99.90
15676;DHT22;7938;47.666;9.434;2022-07-22T12:11:12;28.80;99.80
15676;DHT22;7938;47.666;9.434;2022-07-22T12:13:41;28.80;99.90
15676;DHT22;7938;47.666;9.434;2022-07-22T12:16:32;29.00;99.40
15676;DHT22;7938;47.666;9.434;2022-07-22T12:19:01;29.20;97.60
15676;DHT22;7938;47.666;9.434;2022-07-22T12:21:32;29.10;97.60
15676;DHT22;7938;47.666;9.434;2022-07-22T12:24:01;29.00;98.50
15676;DHT22;7938;47.666;9.434;2022-07-22T12:26:43;29.10;98.20
15676;DHT22;7938;47.666;9.434;2022-07-22T12:29:29;29.30;97.80
15676;DHT22;7938;47.666;9.434;2022-07-22T12:31:58;29.50;98.50
15676;DHT22;7938;47.666;9.434;2022-07-22T12:34:30;29.40;98.30
15676;DHT22;7938;47.666;9.434;2022-07-22T12:36:59;29.50;97.30
15676;DHT22;7938;47.666;9.434;2022-07-22T12:39:28;29.70;97.60
15676;DHT22;7938;47.666;9.434;2022-07-22T12:41:55;29.70;95.70
15676;DHT22;7938;47.666;9.434;2022-07-22T12:44:23;29.70;96.90
15676;DHT22;7938;47.666;9.434;2022-07-22T12:46:52;29.80;96.70
15676;DHT22;7938;47.666;9.434;2022-07-22T12:49:21;29.80;96.00
15676;DHT22;7938;47.666;9.434;2022-07-22T12:52:10;30.10;96.20
15676;DHT22;7938;47.666;9.434;2022-07-22T12:54:39;30.10;96.40
15676;DHT22;7938;47.666;9.434;2022-07-22T12:57:08;30.10;97.10
15676;DHT22;7938;47.666;9.434;2022-07-22T12:59:35;30.30;95.60
15676;DHT22;7938;47.666;9.434;2022-07-22T13:02:03;30.40;95.30
15676;DHT22;7938;47.666;9.434;2022-07-22T13:04:30;30.40;94.70
15676;DHT22;7938;47.666;9.434;2022-07-22T13:06:57;30.40;94.70
15676;DHT22;7938;47.666;9.434;2022-07-22T13:09:25;30.40;95.00
15676;DHT22;7938;47.666;9.434;2022-07-22T13:11:52;30.50;94.00
15676;DHT22;7938;47.666;9.434;2022-07-22T13:14:19;30.60;94.40
15676;DHT22;7938;47.666;9.434;2022-07-22T13:16:46;30.60;93.90
15676;DHT22;7938;47.666;9.434;2022-07-22T13:19:13;30.90;94.10
15676;DHT22;7938;47.666;9.434;2022-07-22T13:21:40;30.80;94.50
15676;DHT22;7938;47.666;9.434;2022-07-22T13:24:07;30.40;93.60
15676;DHT22;7938;47.666;9.434;2022-07-22T13:26:36;30.90;93.50
15676;DHT22;7938;47.666;9.434;2022-07-22T13:29:03;31.00;93.50
15676;DHT22;7938;47.666;9.434;2022-07-22T13:31:29;31.30;91.90
15676;DHT22;7938;47.666;9.434;2022-07-22T13:33:57;31.40;92.40
15676;DHT22;7938;47.666;9.434;2022-07-22T13:36:24;31.50;91.40
15676;DHT22;7938;47.666;9.434;2022-07-22T13:38:54;31.50;92.20
15676;DHT22;7938;47.666;9.434;2022-07-22T13:41:20;31.80;91.30
15676;DHT22;7938;47.666;9.434;2022-07-22T13:43:49;31.90;90.90
15676;DHT22;7938;47.666;9.434;2022-07-22T13:46:17;31.80;92.70
15676;DHT22;7938;47.666;9.434;2022-07-22T13:48:44;32.10;91.60
15676;DHT22;7938;47.666;9.434;2022-07-22T13:51:11;32.30;90.40
15676;DHT22;7938;47.666;9.434;2022-07-22T13:53:38;32.30;90.20
15676;DHT22;7938;47.666;9.434;2022-07-22T13:56:06;32.40;88.30
15676;DHT22;7938;47.666;9.434;2022-07-22T13:58:34;32.50;88.30
15676;DHT22;7938;47.666;9.434;2022-07-22T14:01:03;32.50;90.70
15676;DHT22;7938;47.666;9.434;2022-07-22T14:03:30;32.60;89.70
15676;DHT22;7938;47.666;9.434;2022-07-22T14:05:57;33.60;87.60
15676;DHT22;7938;47.666;9.434;2022-07-22T14:08:24;35.20;82.50
15676;DHT22;7938;47.666;9.434;2022-07-22T14:10:50;37.70;73.90
15676;DHT22;7938;47.666;9.434;2022-07-22T14:13:17;37.90;73.00
15676;DHT22;7938;47.666;9.434;2022-07-22T14:15:44;38.30;72.40
15676;DHT22;7938;47.666;9.434;2022-07-22T14:18:13;38.80;68.80
15676;DHT22;7938;47.666;9.434;2022-07-22T14:20:40;39.40;67.10
15676;DHT22;7938;47.666;9.434;2022-07-22T14:23:07;39.50;68.30
15676;DHT22;7938;47.666;9.434;2022-07-22T14:25:35;39.70;65.10
15676;DHT22;7938;47.666;9.434;2022-07-22T14:28:04;40.20;63.80
15676;DHT22;7938;47.666;9.434;2022-07-22T14:30:31;40.20;61.30
15676;DHT22;7938;47.666;9.434;2022-07-22T14:32:58;40.20;61.60
15676;DHT22;7938;47.666;9.434;2022-07-22T14:35:27;40.90;60.00
15676;DHT22;7938;47.666;9.434;2022-07-22T14:37:54;40.80;59.60
15676;DHT22;7938;47.666;9.434;2022-07-22T14:40:21;42.00;58.00
15676;DHT22;7938;47.666;9.434;2022-07-22T14:42:48;42.00;58.30
15676;DHT22;7938;47.666;9.434;2022-07-22T14:45:15;42.40;57.80
15676;DHT22;7938;47.666;9.434;2022-07-22T14:47:42;41.80;57.70
15676;DHT22;7938;47.666;9.434;2022-07-22T14:50:09;42.10;57.70
15676;DHT22;7938;47.666;9.434;2022-07-22T14:52:38;41.40;54.70
15676;DHT22;7938;47.666;9.434;2022-07-22T14:55:05;42.90;54.60
15676;DHT22;7938;47.666;9.434;2022-07-22T14:57:32;43.20;53.50
15676;DHT22;7938;47.666;9.434;2022-07-22T14:59:59;43.00;51.80
15676;DHT22;7938;47.666;9.434;2022-07-22T15:02:26;43.10;50.90
15676;DHT22;7938;47.666;9.434;2022-07-22T15:04:53;43.00;49.00
15676;DHT22;7938;47.666;9.434;2022-07-22T15:07:20;42.90;48.30
15676;DHT22;7938;47.666;9.434;2022-07-22T15:09:48;43.10;47.00
15676;DHT22;7938;47.666;9.434;2022-07-22T15:12:16;43.40;47.10
15676;DHT22;7938;47.666;9.434;2022-07-22T15:14:43;43.70;47.50
15676;DHT22;7938;47.666;9.434;2022-07-22T15:17:10;43.70;46.90
15676;DHT22;7938;47.666;9.434;2022-07-22T15:19:36;43.70;46.40
15676;DHT22;7938;47.666;9.434;2022-07-22T15:22:03;43.50;43.70
15676;DHT22;7938;47.666;9.434;2022-07-22T15:24:30;44.20;46.90
15676;DHT22;7938;47.666;9.434;2022-07-22T15:26:59;44.00;43.00
15676;DHT22;7938;47.666;9.434;2022-07-22T15:29:26;44.60;45.30
15676;DHT22;7938;47.666;9.434;2022-07-22T15:31:53;44.80;39.60
15676;DHT22;7938;47.666;9.434;2022-07-22T15:34:20;45.00;42.60
15676;DHT22;7938;47.666;9.434;2022-07-22T15:36:46;45.00;43.20
15676;DHT22;7938;47.666;9.434;2022-07-22T15:39:14;45.40;39.20
15676;DHT22;7938;47.666;9.434;2022-07-22T15:41:41;45.50;42.40
15676;DHT22;7938;47.666;9.434;2022-07-22T15:44:09;45.20;40.60
15676;DHT22;7938;47.666;9.434;2022-07-22T15:46:36;45.80;44.20
15676;DHT22;7938;47.666;9.434;2022-07-22T15:49:03;45.90;41.30
15676;DHT22;7938;47.666;9.434;2022-07-22T15:51:30;46.00;39.30
15676;DHT22;7938;47.666;9.434;2022-07-22T15:53:57;45.90;43.00
15676;DHT22;7938;47.666;9.434;2022-07-22T15:56:24;45.40;41.70
15676;DHT22;7938;47.666;9.434;2022-07-22T15:58:51;45.30;41.80
15676;DHT22;7938;47.666;9.434;2022-07-22T16:01:37;45.30;40.80
15676;DHT22;7938;47.666;9.434;2022-07-22T16:04:04;45.40;40.10
15676;DHT22;7938;47.666;9.434;2022-07-22T16:06:32;45.60;39.60
15676;DHT22;7938;47.666;9.434;2022-07-22T16:08:58;45.70;41.00
15676;DHT22;7938;47.666;9.434;2022-07-22T16:11:26;45.40;39.70
15676;DHT22;7938;47.666;9.434;2022-07-22T16:13:53;45.30;40.10
15676;DHT22;7938;47.666;9.434;2022-07-22T16:16:20;44.80;40.60
15676;DHT22;7938;47.666;9.434;2022-07-22T16:18:49;44.50;41.60
15676;DHT22;7938;47.666;9.434;2022-07-22T16:21:16;44.30;41.00
15676;DHT22;7938;47.666;9.434;2022-07-22T16:23:43;43.90;42.00
15676;DHT22;7938;47.666;9.434;2022-07-22T16:26:10;44.30;43.00
15676;DHT22;7938;47.666;9.434;2022-07-22T16:28:37;44.10;42.20
15676;DHT22;7938;47.666;9.434;2022-07-22T16:31:10;42.90;41.40
15676;DHT22;7938;47.666;9.434;2022-07-22T16:33:37;42.60;42.00
15676;DHT22;7938;47.666;9.434;2022-07-22T16:36:06;42.80;41.30
15676;DHT22;7938;47.666;9.434;2022-07-22T16:38:34;42.80;43.30
15676;DHT22;7938;47.666;9.434;2022-07-22T16:41:00;43.20;45.10
15676;DHT22;7938;47.666;9.434;2022-07-22T16:43:27;43.00;43.60
15676;DHT22;7938;47.666;9.434;2022-07-22T16:45:54;42.00;44.80
15676;DHT22;7938;47.666;9.434;2022-07-22T16:48:21;42.40;45.70
15676;DHT22;7938;47.666;9.434;2022-07-22T16:50:48;42.40;45.70
15676;DHT22;7938;47.666;9.434;2022-07-22T16:53:16;42.50;46.00
15676;DHT22;7938;47.666;9.434;2022-07-22T16:55:43;43.10;45.80
15676;DHT22;7938;47.666;9.434;2022-07-22T16:58:10;43.80;45.30
15676;DHT22;7938;47.666;9.434;2022-07-22T17:00:37;44.20;43.30
15676;DHT22;7938;47.666;9.434;2022-07-22T17:03:04;43.70;42.60
15676;DHT22;7938;47.666;9.434;2022-07-22T17:05:31;43.90;44.90
15676;DHT22;7938;47.666;9.434;2022-07-22T17:07:59;43.50;42.60
15676;DHT22;7938;47.666;9.434;2022-07-22T17:10:27;43.10;42.80
15676;DHT22;7938;47.666;9.434;2022-07-22T17:12:54;43.10;42.90
15676;DHT22;7938;47.666;9.434;2022-07-22T17:15:21;42.70;43.10
15676;DHT22;7938;47.666;9.434;2022-07-22T17:17:48;42.10;42.50
15676;DHT22;7938;47.666;9.434;2022-07-22T17:20:15;41.90;42.40
15676;DHT22;7938;47.666;9.434;2022-07-22T17:22:42;41.70;42.20
15676;DHT22;7938;47.666;9.434;2022-07-22T17:25:09;41.50;45.00
15676;DHT22;7938;47.666;9.434;2022-07-22T17:27:38;41.40;44.40
15676;DHT22;7938;47.666;9.434;2022-07-22T17:30:07;41.10;46.90
15676;DHT22;7938;47.666;9.434;2022-07-22T17:32:34;41.20;44.30
15676;DHT22;7938;47.666;9.434;2022-07-22T17:35:01;41.00;46.00
15676;DHT22;7938;47.666;9.434;2022-07-22T17:37:28;40.10;45.20
15676;DHT22;7938;47.666;9.434;2022-07-22T17:39:55;38.50;49.20
15676;DHT22;7938;47.666;9.434;2022-07-22T17:42:22;36.50;52.60
15676;DHT22;7938;47.666;9.434;2022-07-22T17:44:50;35.40;57.20
15676;DHT22;7938;47.666;9.434;2022-07-22T17:47:17;34.20;61.70
15676;DHT22;7938;47.666;9.434;2022-07-22T17:49:45;33.50;60.00
15676;DHT22;7938;47.666;9.434;2022-07-22T17:52:12;32.70;65.60
15676;DHT22;7938;47.666;9.434;2022-07-22T17:54:39;32.30;66.60
15676;DHT22;7938;47.666;9.434;2022-07-22T17:57:06;31.90;63.40
15676;DHT22;7938;47.666;9.434;2022-07-22T17:59:33;31.70;61.00
15676;DHT22;7938;47.666;9.434;2022-07-22T18:02:02;31.30;63.50
15676;DHT22;7938;47.666;9.434;2022-07-22T18:04:30;31.00;61.30
15676;DHT22;7938;47.666;9.434;2022-07-22T18:06:57;30.70;65.00
15676;DHT22;7938;47.666;9.434;2022-07-22T18:09:24;30.50;67.20
15676;DHT22;7938;47.666;9.434;2022-07-22T18:11:51;30.00;65.00
15676;DHT22;7938;47.666;9.434;2022-07-22T18:14:18;29.90;67.40
15676;DHT22;7938;47.666;9.434;2022-07-22T18:16:45;29.70;64.00
15676;DHT22;7938;47.666;9.434;2022-07-22T18:19:13;29.50;67.60
15676;DHT22;7938;47.666;9.434;2022-07-22T18:21:40;29.30;65.30
15676;DHT22;7938;47.666;9.434;2022-07-22T18:24:07;29.20;66.00
15676;DHT22;7938;47.666;9.434;2022-07-22T18:26:34;29.00;68.90
15676;DHT22;7938;47.666;9.434;2022-07-22T18:29:01;28.80;66.50
15676;DHT22;7938;47.666;9.434;2022-07-22T18:31:28;28.50;67.10
15676;DHT22;7938;47.666;9.434;2022-07-22T18:33:55;28.50;67.50
15676;DHT22;7938;47.666;9.434;2022-07-22T18:36:23;28.30;68.30
15676;DHT22;7938;47.666;9.434;2022-07-22T18:38:50;28.10;70.40
15676;DHT22;7938;47.666;9.434;2022-07-22T18:41:17;28.00;75.30
15676;DHT22;7938;47.666;9.434;2022-07-22T18:43:44;27.90;75.80
15676;DHT22;7938;47.666;9.434;2022-07-22T18:46:11;27.80;75.90
15676;DHT22;7938;47.666;9.434;2022-07-22T18:48:38;27.70;76.10
15676;DHT22;7938;47.666;9.434;2022-07-22T18:51:05;27.50;75.60
15676;DHT22;7938;47.666;9.434;2022-07-22T18:53:34;27.50;77.40
15676;DHT22;7938;47.666;9.434;2022-07-22T18:56:03;27.50;78.00
15676;DHT22;7938;47.666;9.434;2022-07-22T18:58:30;27.30;78.50
15676;DHT22;7938;47.666;9.434;2022-07-22T19:00:57;27.20;75.30
15676;DHT22;7938;47.666;9.434;2022-07-22T19:03:24;27.20;74.90
15676;DHT22;7938;47.666;9.434;2022-07-22T19:05:51;27.20;74.40
15676;DHT22;7938;47.666;9.434;2022-07-22T19:08:18;27.20;77.90
15676;DHT22;7938;47.666;9.434;2022-07-22T19:10:46;27.00;79.00
15676;DHT22;7938;47.666;9.434;2022-07-22T19:13:13;27.00;74.50
15676;DHT22;7938;47.666;9.434;2022-07-22T19:15:41;26.80;71.40
15676;DHT22;7938;47.666;9.434;2022-07-22T19:18:08;26.80;71.90
15676;DHT22;7938;47.666;9.434;2022-07-22T19:20:35;26.60;74.70
15676;DHT22;7938;47.666;9.434;2022-07-22T19:23:02;26.60;74.80
15676;DHT22;7938;47.666;9.434;2022-07-22T19:25:29;26.40;73.60
15676;DHT22;7938;47.666;9.434;2022-07-22T19:27:57;26.20;74.20
15676;DHT22;7938;47.666;9.434;2022-07-22T19:30:24;26.10;74.70
15676;DHT22;7938;47.666;9.434;2022-07-22T19:32:51;26.10;75.30
15676;DHT22;7938;47.666;9.434;2022-07-22T19:35:18;26.00;77.30
15676;DHT22;7938;47.666;9.434;2022-07-22T19:37:45;25.80;78.80
15676;DHT22;7938;47.666;9.434;2022-07-22T19:40:12;25.80;79.10
15676;DHT22;7938;47.666;9.434;2022-07-22T19:42:39;25.70;79.50
15676;DHT22;7938;47.666;9.434;2022-07-22T19:45:09;25.60;80.50
15676;DHT22;7938;47.666;9.434;2022-07-22T19:47:36;25.60;83.30
15676;DHT22;7938;47.666;9.434;2022-07-22T19:50:03;25.50;83.20